Nadja — CQAN — position and weather

sailwx.info

Track history (hours):
 
Tides and Currents Weather Stations Pressure Air Temp Water Temp Dewpoint Dewpoint Depression Visibility Wind Speed Wind Dir Waves Ship Positions

Nadja

Last reported at 2018-Feb-20 02:04 UTC. Time now 2018-Feb-21 03:29 UTC.
Position N 19°18' W 095°57'.

Length 120 m; draft 7 m.

Type: Ship. MMSI: 255805816.

Date/timePositionNaut miles runAvg speedWind from/ knotsBaromVisibWave heightAir tempDewpointWater temp
2018-Feb-20 02:04N 19°18' W 095°57'112.7
2018-Feb-20 01:59N 19°17' W 095°57'811.3
2018-Feb-20 01:14N 19°11' W 096°03'2 8.8
2018-Feb-20 01:00N 19°12' W 096°05'3 5.4
2018-Feb-20 00:30N 19°12' W 096°08'0 0.0
2018-Feb-20 00:00N 19°12' W 096°08'0 0.0
2018-Feb-19 23:30N 19°12' W 096°08'0 0.0
2018-Feb-19 22:57N 19°12' W 096°08'0 0.0
2018-Feb-19 22:27N 19°12' W 096°08'0 0.0
2018-Feb-19 22:00N 19°12' W 096°08'0 0.0
2018-Feb-19 21:24N 19°12' W 096°08'0 0.0
2018-Feb-19 21:00N 19°12' W 096°08'0 0.0
2018-Feb-19 20:30N 19°12' W 096°08'0 0.0
2018-Feb-19 20:00N 19°12' W 096°08'0 0.0
2018-Feb-19 19:30N 19°12' W 096°08'0 0.0
2018-Feb-19 19:00N 19°12' W 096°08'0 0.0
2018-Feb-19 18:30N 19°12' W 096°08'0 0.0
2018-Feb-19 18:00N 19°12' W 096°08'0 0.0
2018-Feb-19 17:30N 19°12' W 096°08'0 0.0
2018-Feb-19 16:57N 19°12' W 096°08'0 0.0
2018-Feb-19 16:30N 19°12' W 096°08'0 0.0
2018-Feb-19 16:00N 19°12' W 096°08'0 0.0
2018-Feb-19 15:27N 19°12' W 096°08'0 0.0
2018-Feb-19 14:57N 19°12' W 096°08'0 0.0
2018-Feb-19 14:30N 19°12' W 096°08'  
2018-Feb-16 21:10N 19°11' W 096°03'1 3.8
2018-Feb-16 21:00N 19°12' W 096°02'510.1
2018-Feb-16 20:30N 19°16' W 096°00'612.6
2018-Feb-16 19:59N 19°23' W 095°60'47712.6
2018-Feb-15 06:05N 27°18' W 095°14'112.6
2018-Feb-15 05:59N 27°19' W 095°14'1212.5
2018-Feb-15 05:00N 27°32' W 095°13'712.4
2018-Feb-15 04:29N 27°38' W 095°12'6812.9
2018-Feb-14 23:11N 28°46' W 095°09'413.4
2018-Feb-14 22:55N 28°49' W 095°11'612.5
2018-Feb-14 22:28N 28°54' W 095°15'4 8.2
2018-Feb-14 22:00N 28°56' W 095°18'2 0.4
2018-Feb-14 17:09N 28°56' W 095°21'0 0.0
2018-Feb-14 16:42N 28°56' W 095°21'0 0.0
2018-Feb-14 16:24N 28°56' W 095°21'0 0.0
2018-Feb-14 15:09N 28°56' W 095°21'0 0.0
2018-Feb-14 13:15N 28°56' W 095°21'39 0.8
2018-Feb-12 15:18N 29°23' W 094°49'414.0
2018-Feb-12 14:59N 29°27' W 094°51'613.5
2018-Feb-12 14:30N 29°33' W 094°54'612.8
2018-Feb-12 14:00N 29°38' W 094°58'611.9
2018-Feb-12 13:30N 29°44' W 095°01'4 8.0
2018-Feb-12 13:00N 29°45' W 095°06'3 6.7
2018-Feb-12 12:30N 29°44' W 095°09'  
Track history (hours):
 
Tides and Currents Weather Stations Pressure Air Temp Water Temp Dewpoint Dewpoint Depression Visibility Wind Speed Wind Dir Waves Ship Positions

Nadja

Last reported at 2018-Feb-20 02:04 UTC. Time now 2018-Feb-21 03:29 UTC.
Position N 19°18' W 095°57'.

Length 120 m; draft 7 m.

Type: Ship. MMSI: 255805816.

Date/timePositionNaut miles runAvg speedWind from/ knotsBaromVisibWave heightAir tempDewpointWater temp
2018-Feb-20 02:04N 19°18' W 095°57'112.7
2018-Feb-20 01:59N 19°17' W 095°57'811.3
2018-Feb-20 01:14N 19°11' W 096°03'2 8.8
2018-Feb-20 01:00N 19°12' W 096°05'3 5.4
2018-Feb-20 00:30N 19°12' W 096°08'0 0.0
2018-Feb-20 00:00N 19°12' W 096°08'0 0.0
2018-Feb-19 23:30N 19°12' W 096°08'0 0.0
2018-Feb-19 22:57N 19°12' W 096°08'0 0.0
2018-Feb-19 22:27N 19°12' W 096°08'0 0.0
2018-Feb-19 22:00N 19°12' W 096°08'0 0.0
2018-Feb-19 21:24N 19°12' W 096°08'0 0.0
2018-Feb-19 21:00N 19°12' W 096°08'0 0.0
2018-Feb-19 20:30N 19°12' W 096°08'0 0.0
2018-Feb-19 20:00N 19°12' W 096°08'0 0.0
2018-Feb-19 19:30N 19°12' W 096°08'0 0.0
2018-Feb-19 19:00N 19°12' W 096°08'0 0.0
2018-Feb-19 18:30N 19°12' W 096°08'0 0.0
2018-Feb-19 18:00N 19°12' W 096°08'0 0.0
2018-Feb-19 17:30N 19°12' W 096°08'0 0.0
2018-Feb-19 16:57N 19°12' W 096°08'0 0.0
2018-Feb-19 16:30N 19°12' W 096°08'0 0.0
2018-Feb-19 16:00N 19°12' W 096°08'0 0.0
2018-Feb-19 15:27N 19°12' W 096°08'0 0.0
2018-Feb-19 14:57N 19°12' W 096°08'0 0.0
2018-Feb-19 14:30N 19°12' W 096°08'  
2018-Feb-16 21:10N 19°11' W 096°03'1 3.8
2018-Feb-16 21:00N 19°12' W 096°02'510.1
2018-Feb-16 20:30N 19°16' W 096°00'612.6
2018-Feb-16 19:59N 19°23' W 095°60'47712.6
2018-Feb-15 06:05N 27°18' W 095°14'112.6
2018-Feb-15 05:59N 27°19' W 095°14'1212.5
2018-Feb-15 05:00N 27°32' W 095°13'712.4
2018-Feb-15 04:29N 27°38' W 095°12'6812.9
2018-Feb-14 23:11N 28°46' W 095°09'413.4
2018-Feb-14 22:55N 28°49' W 095°11'612.5
2018-Feb-14 22:28N 28°54' W 095°15'4 8.2
2018-Feb-14 22:00N 28°56' W 095°18'2 0.4
2018-Feb-14 17:09N 28°56' W 095°21'0 0.0
2018-Feb-14 16:42N 28°56' W 095°21'0 0.0
2018-Feb-14 16:24N 28°56' W 095°21'0 0.0
2018-Feb-14 15:09N 28°56' W 095°21'0 0.0
2018-Feb-14 13:15N 28°56' W 095°21'39 0.8
2018-Feb-12 15:18N 29°23' W 094°49'414.0
2018-Feb-12 14:59N 29°27' W 094°51'613.5
2018-Feb-12 14:30N 29°33' W 094°54'612.8
2018-Feb-12 14:00N 29°38' W 094°58'611.9
2018-Feb-12 13:30N 29°44' W 095°01'4 8.0
2018-Feb-12 13:00N 29°45' W 095°06'3 6.7
2018-Feb-12 12:30N 29°44' W 095°09'  

Dump ship's entire track history